Huslia Airport Huslia US
ICAO: PAHL
IATA:
Category: Medium
Scheduled Services:

Elevation: 220 ft
TransAlt. 18000 ft.

Airport Communications:
AWOS 3:135.75
ANCHORAGE CNTR:127
CTAF:122.8
FAIRBANKS RDO:122.4

PAHL Zoom In..

Runways:

(A) RW 03 length 4000 ft width 75 ft
---- / hdg 32

(B) RW 21 length 4000 ft width 75 ft
---- / hdg 212

Location; PAHL
Day. 20 / Time. 19.56 Zulu
* Altimeter: 30.25
* Temperature: 16° c. 60.8°f.
* Wind from: VRB° Speed 04 kn.
Dewpoint: 10° c.
Visibility: 10 Statute Miles.
Clouds: Scattered 2300 ft.
Clouds: Overcast 4400 ft.

PAHL 201956Z AUTO VRB04KT 10SM SCT023 OVC044 16/10 A3025 RMK AO2 SLP253 T01560100


Wind From VRB°
Speed 04 kn.

 
 
jpsmedia.com for Web Design worldairports.se 2018   terms of use